Time;durP1;ratioP1;P1;durP2;ratioP2;P2;SDS_P1;SDS_P2;PMS_P1;PMS_P2;Temp;Humidity;BMP_temperature;BMP_pressure;BME280_temperature;BME280_humidity;BME280_pressure;Samples;Min_cycle;Max_cycle;Signal;HPM_P1;HPM_P2
2023/03/17 00:00:31;;;;;;;19.03;7.10;;;;;;;;;;4972180;28;20023;-76
2023/03/17 00:02:58;;;;;;;12.33;7.17;;;;;;;;;;4972416;28;20420;-75
2023/03/17 00:05:28;;;;;;;16.20;6.63;;;;;;;;;;4974137;28;20038;-75
2023/03/17 00:08:01;;;;;;;11.60;5.97;;;;;;;;;;4973390;28;20031;-73
2023/03/17 00:10:28;;;;;;;16.90;5.90;;;;;;;;;;4974262;28;20490;-76
2023/03/17 00:12:54;;;;;;;19.90;8.27;;;;;;;;;;4973967;28;20031;-74
2023/03/17 00:15:22;;;;;;;13.53;5.87;;;;;;;;;;4973018;28;20097;-76
2023/03/17 00:17:48;;;;;;;13.33;6.37;;;;;;;;;;4970785;28;20038;-75
2023/03/17 00:20:26;;;;;;;12.17;5.93;;;;;;;;;;4986478;28;20045;-75
2023/03/17 00:22:54;;;;;;;14.23;5.90;;;;;;;;;;4971164;28;20031;-75
2023/03/17 00:25:28;;;;;;;22.60;7.20;;;;;;;;;;4986147;28;20027;-75
2023/03/17 00:27:55;;;;;;;20.50;7.00;;;;;;;;;;4973080;28;20046;-75
2023/03/17 00:30:22;;;;;;;15.23;6.40;;;;;;;;;;4970979;28;20033;-76
2023/03/17 00:32:50;;;;;;;14.77;6.97;;;;;;;;;;4970389;28;20035;-75
2023/03/17 00:35:33;;;;;;;19.80;6.70;;;;;;;;;;4952995;28;20042;-75
2023/03/17 00:37:59;;;;;;;27.50;7.20;;;;;;;;;;4969112;28;20041;-75
2023/03/17 00:40:31;;;;;;;14.17;6.23;;;;;;;;;;4970652;28;20641;-75
2023/03/17 00:42:58;;;;;;;18.08;8.35;;;;;;;;;;4969250;28;20416;-75
2023/03/17 00:45:26;;;;;;;15.87;6.77;;;;;;;;;;4969505;28;20039;-75
2023/03/17 00:47:54;;;;;;;17.80;7.00;;;;;;;;;;4969298;28;20065;-75
2023/03/17 00:50:25;;;;;;;18.47;7.27;;;;;;;;;;4969243;28;20468;-75
2023/03/17 00:52:52;;;;;;;12.67;6.10;;;;;;;;;;4969929;28;20026;-75
2023/03/17 00:55:19;;;;;;;12.77;6.67;;;;;;;;;;4969914;28;20034;-75
2023/03/17 00:57:46;;;;;;;14.93;6.30;;;;;;;;;;4968793;28;20035;-75
2023/03/17 01:00:26;;;;;;;19.60;6.43;;;;;;;;;;4968677;28;20033;-75
2023/03/17 01:02:53;;;;;;;11.17;5.50;;;;;;;;;;4972085;28;20037;-75
2023/03/17 01:05:21;;;;;;;13.70;5.77;;;;;;;;;;4988526;28;20058;-75
2023/03/17 01:07:51;;;;;;;15.13;6.20;;;;;;;;;;4972356;28;20038;-76
2023/03/17 01:10:21;;;;;;;19.87;7.50;;;;;;;;;;4973694;28;20039;-76
2023/03/17 01:12:48;;;;;;;15.20;6.60;;;;;;;;;;4971783;28;20142;-74
2023/03/17 01:15:14;;;;;;;10.87;6.90;;;;;;;;;;4988363;28;20460;-74
2023/03/17 01:17:40;;;;;;;17.50;7.40;;;;;;;;;;4972026;28;20092;-75
2023/03/17 01:20:07;;;;;;;19.10;8.17;;;;;;;;;;4972410;28;20062;-75
2023/03/17 01:22:33;;;;;;;16.83;8.57;;;;;;;;;;4972445;28;20043;-75
2023/03/17 01:24:59;;;;;;;13.70;7.47;;;;;;;;;;4988577;28;20042;-75
2023/03/17 01:27:24;;;;;;;19.87;7.50;;;;;;;;;;4973703;28;20054;-75
2023/03/17 01:29:53;;;;;;;19.40;7.90;;;;;;;;;;4973484;28;20042;-75
2023/03/17 01:32:20;;;;;;;13.73;7.03;;;;;;;;;;4973648;28;20436;-75
2023/03/17 01:34:46;;;;;;;15.53;8.50;;;;;;;;;;4972842;28;20079;-75
2023/03/17 01:37:13;;;;;;;17.80;8.50;;;;;;;;;;4973696;28;20074;-74
2023/03/17 01:39:40;;;;;;;19.83;8.93;;;;;;;;;;4972682;28;20031;-76
2023/03/17 01:42:06;;;;;;;15.50;7.00;;;;;;;;;;4974167;28;20038;-73
2023/03/17 01:44:32;;;;;;;16.80;8.00;;;;;;;;;;4972819;28;20027;-74
2023/03/17 01:46:57;;;;;;;28.57;8.90;;;;;;;;;;4988087;28;20029;-74
2023/03/17 01:49:34;;;;;;;14.90;8.00;;;;;;;;;;4988181;28;20534;-75
2023/03/17 01:52:11;;;;;;;16.03;7.63;;;;;;;;;;4971411;28;20027;-76
2023/03/17 01:54:51;;;;;;;20.57;8.53;;;;;;;;;;4975041;28;20034;-74
2023/03/17 01:57:31;;;;;;;23.70;8.90;;;;;;;;;;4975861;28;20039;-74
2023/03/17 02:00:04;;;;;;;20.50;8.63;;;;;;;;;;4972926;28;20039;-75
2023/03/17 02:02:33;;;;;;;19.60;8.47;;;;;;;;;;4972596;28;20038;-75
2023/03/17 02:05:00;;;;;;;18.33;8.97;;;;;;;;;;4973085;28;20709;-74
2023/03/17 02:07:26;;;;;;;26.70;10.63;;;;;;;;;;4971638;28;20533;-75
2023/03/17 02:09:54;;;;;;;17.53;9.17;;;;;;;;;;4971267;28;20037;-75
2023/03/17 02:12:23;;;;;;;23.00;9.83;;;;;;;;;;4971115;28;20094;-74
2023/03/17 02:14:50;;;;;;;23.70;9.77;;;;;;;;;;4972011;28;20419;-75
2023/03/17 02:17:17;;;;;;;22.70;9.83;;;;;;;;;;4971381;28;20031;-75
2023/03/17 02:19:43;;;;;;;23.13;10.00;;;;;;;;;;4971488;28;20031;-74
2023/03/17 02:22:09;;;;;;;18.90;9.70;;;;;;;;;;4972190;28;20027;-74
2023/03/17 02:24:35;;;;;;;18.07;8.73;;;;;;;;;;4972206;28;20035;-74
2023/03/17 02:27:23;;;;;;;21.20;9.57;;;;;;;;;;4972287;28;20085;-74
2023/03/17 02:29:49;;;;;;;25.57;9.87;;;;;;;;;;4973482;28;20033;-74
2023/03/17 02:32:17;;;;;;;19.43;9.03;;;;;;;;;;4974441;28;20106;-75
2023/03/17 02:34:43;;;;;;;20.07;11.03;;;;;;;;;;4973195;28;20026;-74
2023/03/17 02:37:09;;;;;;;20.50;8.80;;;;;;;;;;4973588;28;20488;-74
2023/03/17 02:39:35;;;;;;;20.13;9.47;;;;;;;;;;4966075;28;20094;-74
2023/03/17 02:42:01;;;;;;;25.60;9.80;;;;;;;;;;4972529;28;20121;-74
2023/03/17 02:44:26;;;;;;;18.67;9.10;;;;;;;;;;4972400;28;20097;-75
2023/03/17 02:46:52;;;;;;;23.97;9.57;;;;;;;;;;4972383;28;20530;-75
2023/03/17 02:49:18;;;;;;;25.33;10.47;;;;;;;;;;4970586;28;20051;-75
2023/03/17 02:51:44;;;;;;;21.37;9.33;;;;;;;;;;4970393;28;20062;-74
2023/03/17 02:54:10;;;;;;;22.80;9.77;;;;;;;;;;4970618;28;20034;-73
2023/03/17 02:56:36;;;;;;;15.30;8.27;;;;;;;;;;4971749;28;20041;-74
2023/03/17 02:59:03;;;;;;;23.00;8.53;;;;;;;;;;4971660;28;20042;-74
2023/03/17 03:01:29;;;;;;;18.43;7.97;;;;;;;;;;4970566;28;20039;-75
2023/03/17 03:03:56;;;;;;;18.07;8.23;;;;;;;;;;4970067;28;20122;-75
2023/03/17 03:06:22;;;;;;;18.20;8.77;;;;;;;;;;4970645;28;20435;-75
2023/03/17 03:08:48;;;;;;;20.03;8.73;;;;;;;;;;4969898;28;20027;-75
2023/03/17 03:11:14;;;;;;;18.40;8.80;;;;;;;;;;4969796;28;20112;-76
2023/03/17 03:13:40;;;;;;;22.03;9.80;;;;;;;;;;4969774;28;20078;-76
2023/03/17 03:16:06;;;;;;;22.70;9.00;;;;;;;;;;4971071;28;20038;-76
2023/03/17 03:18:31;;;;;;;17.87;9.30;;;;;;;;;;4969890;28;20118;-75
2023/03/17 03:20:57;;;;;;;23.13;9.63;;;;;;;;;;4969951;28;20029;-75
2023/03/17 03:23:23;;;;;;;20.67;9.10;;;;;;;;;;4970025;28;20034;-74
2023/03/17 03:25:48;;;;;;;17.93;8.90;;;;;;;;;;4969214;28;20031;-75
2023/03/17 03:28:14;;;;;;;24.50;8.50;;;;;;;;;;4971496;28;20129;-74
2023/03/17 03:30:40;;;;;;;21.03;8.93;;;;;;;;;;4970160;28;20090;-76
2023/03/17 03:33:06;;;;;;;17.23;8.70;;;;;;;;;;4971486;28;20413;-74
2023/03/17 03:35:33;;;;;;;24.90;9.97;;;;;;;;;;4969999;28;20038;-75
2023/03/17 03:37:59;;;;;;;17.73;8.83;;;;;;;;;;4971482;28;20030;-76
2023/03/17 03:40:25;;;;;;;22.93;9.43;;;;;;;;;;4969694;28;20027;-75
2023/03/17 03:42:51;;;;;;;20.00;8.47;;;;;;;;;;4970999;28;20645;-75
2023/03/17 03:45:17;;;;;;;21.10;8.83;;;;;;;;;;4970243;28;20102;-75
2023/03/17 03:47:43;;;;;;;22.53;9.47;;;;;;;;;;4971014;28;20027;-75
2023/03/17 03:50:10;;;;;;;31.07;10.80;;;;;;;;;;4971031;28;20041;-75
2023/03/17 03:52:36;;;;;;;21.77;9.90;;;;;;;;;;4985713;28;20122;-75
2023/03/17 03:55:02;;;;;;;23.70;10.03;;;;;;;;;;4971010;28;20035;-74
2023/03/17 03:57:27;;;;;;;23.07;10.37;;;;;;;;;;4971083;28;20077;-75
2023/03/17 03:59:53;;;;;;;20.93;8.83;;;;;;;;;;4970669;28;20030;-75
2023/03/17 04:02:19;;;;;;;18.73;8.57;;;;;;;;;;4969987;28;20030;-75
2023/03/17 04:04:44;;;;;;;20.53;10.43;;;;;;;;;;4970396;28;20035;-75
2023/03/17 04:07:10;;;;;;;28.97;10.67;;;;;;;;;;4970929;28;20037;-75
2023/03/17 04:09:36;;;;;;;25.97;9.97;;;;;;;;;;4970093;28;20030;-75
2023/03/17 04:12:02;;;;;;;21.13;9.07;;;;;;;;;;4972888;28;20363;-74
2023/03/17 04:14:28;;;;;;;19.10;9.93;;;;;;;;;;4977156;28;20050;-74
2023/03/17 04:16:54;;;;;;;23.90;8.03;;;;;;;;;;4988694;28;20025;-74
2023/03/17 04:19:22;;;;;;;21.17;8.53;;;;;;;;;;4972135;28;20090;-74
2023/03/17 04:21:47;;;;;;;13.57;7.93;;;;;;;;;;4971311;28;20116;-74
2023/03/17 04:24:13;;;;;;;19.43;8.43;;;;;;;;;;4970989;28;20479;-74
2023/03/17 04:26:40;;;;;;;26.43;8.97;;;;;;;;;;4969713;28;20117;-75
2023/03/17 04:29:07;;;;;;;24.17;8.87;;;;;;;;;;4969463;28;20093;-75
2023/03/17 04:31:38;;;;;;;21.87;9.20;;;;;;;;;;4971033;28;20464;-74
2023/03/17 04:34:04;;;;;;;26.63;8.27;;;;;;;;;;4970130;28;20089;-75
2023/03/17 04:36:29;;;;;;;24.20;8.73;;;;;;;;;;4970901;28;20059;-75
2023/03/17 04:38:55;;;;;;;11.83;7.57;;;;;;;;;;4975374;28;20089;-75
2023/03/17 04:41:20;;;;;;;20.77;9.13;;;;;;;;;;4975743;28;20478;-75
2023/03/17 04:43:46;;;;;;;16.87;8.43;;;;;;;;;;4974523;28;20126;-74
2023/03/17 04:46:12;;;;;;;20.10;8.23;;;;;;;;;;4958361;28;20041;-74
2023/03/17 04:48:38;;;;;;;14.20;7.87;;;;;;;;;;4974783;28;20455;-74
2023/03/17 04:51:04;;;;;;;18.10;8.53;;;;;;;;;;4976000;28;20035;-76
2023/03/17 04:53:30;;;;;;;15.50;8.30;;;;;;;;;;4974654;28;20351;-75
2023/03/17 04:55:56;;;;;;;22.63;8.53;;;;;;;;;;4973668;28;20038;-75
2023/03/17 04:58:21;;;;;;;30.73;10.13;;;;;;;;;;4975249;28;20402;-75
2023/03/17 05:00:47;;;;;;;20.93;8.83;;;;;;;;;;4975648;28;20038;-75
2023/03/17 05:03:12;;;;;;;21.67;8.77;;;;;;;;;;4975310;28;20494;-75
2023/03/17 05:05:38;;;;;;;17.87;9.33;;;;;;;;;;4977020;28;20026;-75
2023/03/17 05:08:03;;;;;;;18.53;8.17;;;;;;;;;;4976586;28;20124;-76
2023/03/17 05:10:29;;;;;;;18.10;7.70;;;;;;;;;;4975851;28;20030;-76
2023/03/17 05:12:54;;;;;;;12.93;7.30;;;;;;;;;;4980728;28;20038;-76
2023/03/17 05:15:20;;;;;;;19.50;8.53;;;;;;;;;;4978946;28;20074;-76
2023/03/17 05:17:47;;;;;;;21.13;8.13;;;;;;;;;;4977651;28;20427;-76
2023/03/17 05:20:13;;;;;;;16.87;6.70;;;;;;;;;;4976949;28;20027;-74
2023/03/17 05:22:39;;;;;;;17.97;6.43;;;;;;;;;;4977522;28;20125;-74
2023/03/17 05:25:05;;;;;;;19.90;8.83;;;;;;;;;;4977527;28;20042;-74
2023/03/17 05:27:31;;;;;;;14.67;6.87;;;;;;;;;;4979911;28;20030;-75
2023/03/17 05:29:57;;;;;;;20.50;7.73;;;;;;;;;;4984305;28;20503;-75
2023/03/17 05:32:23;;;;;;;36.60;10.50;;;;;;;;;;4977601;28;20026;-75
2023/03/17 05:34:49;;;;;;;19.10;7.90;;;;;;;;;;4974101;28;20026;-75
2023/03/17 05:37:14;;;;;;;14.57;7.17;;;;;;;;;;4974126;28;20522;-75
2023/03/17 05:39:40;;;;;;;17.83;7.90;;;;;;;;;;4974321;28;20126;-76
2023/03/17 05:42:07;;;;;;;17.37;8.10;;;;;;;;;;4974338;28;20121;-75
2023/03/17 05:44:33;;;;;;;16.47;7.43;;;;;;;;;;4972124;28;20034;-75
2023/03/17 05:46:58;;;;;;;20.73;8.63;;;;;;;;;;4972248;28;20035;-74
2023/03/17 05:49:27;;;;;;;19.93;7.53;;;;;;;;;;4971768;28;20035;-76
2023/03/17 05:51:54;;;;;;;24.90;8.73;;;;;;;;;;4973597;28;20038;-75
2023/03/17 05:54:20;;;;;;;20.87;8.27;;;;;;;;;;4971692;28;20460;-76
2023/03/17 05:56:46;;;;;;;21.63;7.97;;;;;;;;;;4973370;28;20386;-76
2023/03/17 05:59:14;;;;;;;13.60;6.90;;;;;;;;;;4971499;28;20052;-76
2023/03/17 06:01:40;;;;;;;13.47;6.67;;;;;;;;;;4972026;28;20353;-76
2023/03/17 06:04:06;;;;;;;16.27;6.97;;;;;;;;;;4971376;28;20036;-75
2023/03/17 06:06:32;;;;;;;16.43;7.60;;;;;;;;;;4972626;28;20038;-76
2023/03/17 06:08:58;;;;;;;21.17;8.57;;;;;;;;;;4972701;28;20026;-76
2023/03/17 06:11:24;;;;;;;14.37;8.30;;;;;;;;;;4971486;28;20613;-77
2023/03/17 06:13:49;;;;;;;18.83;7.37;;;;;;;;;;4973647;28;20101;-76
2023/03/17 06:16:15;;;;;;;17.13;8.27;;;;;;;;;;4971412;28;20073;-75
2023/03/17 06:18:43;;;;;;;13.97;7.30;;;;;;;;;;4971149;28;20502;-78
2023/03/17 06:21:09;;;;;;;22.97;8.43;;;;;;;;;;4967753;28;20030;-77
2023/03/17 06:23:35;;;;;;;16.40;6.83;;;;;;;;;;4969879;28;20479;-76
2023/03/17 06:26:01;;;;;;;14.87;7.43;;;;;;;;;;4970553;28;20045;-75
2023/03/17 06:28:26;;;;;;;12.73;7.13;;;;;;;;;;4970975;28;20043;-77
2023/03/17 06:30:52;;;;;;;23.57;7.50;;;;;;;;;;4972417;28;20491;-77
2023/03/17 06:33:18;;;;;;;19.13;7.33;;;;;;;;;;4971461;28;20534;-77
2023/03/17 06:35:43;;;;;;;19.97;10.20;;;;;;;;;;4973837;28;20498;-77
2023/03/17 06:38:09;;;;;;;29.70;8.70;;;;;;;;;;4970263;28;20031;-73
2023/03/17 06:40:35;;;;;;;27.87;14.60;;;;;;;;;;4970145;28;20027;-73
2023/03/17 06:43:04;;;;;;;22.57;9.80;;;;;;;;;;4969666;28;20053;-76
2023/03/17 06:45:31;;;;;;;27.17;9.90;;;;;;;;;;4971056;28;20085;-77
2023/03/17 06:47:57;;;;;;;17.13;7.70;;;;;;;;;;4966509;28;20566;-76
2023/03/17 06:50:24;;;;;;;23.17;7.77;;;;;;;;;;4968205;28;20045;-77
2023/03/17 06:52:49;;;;;;;20.03;7.37;;;;;;;;;;4967514;28;20042;-75
2023/03/17 06:55:16;;;;;;;20.93;8.40;;;;;;;;;;4968384;28;20106;-77
2023/03/17 06:57:42;;;;;;;27.83;9.17;;;;;;;;;;4952503;28;20062;-74
2023/03/17 07:00:08;;;;;;;15.20;7.17;;;;;;;;;;4968893;28;20355;-75
2023/03/17 07:02:36;;;;;;;20.67;7.53;;;;;;;;;;4967300;28;20038;-75
2023/03/17 07:05:03;;;;;;;21.90;7.77;;;;;;;;;;4965582;28;20045;-73
2023/03/17 07:07:29;;;;;;;13.57;6.70;;;;;;;;;;4966234;28;20117;-76
2023/03/17 07:09:54;;;;;;;13.33;5.47;;;;;;;;;;4951530;28;20122;-76
2023/03/17 07:12:20;;;;;;;22.40;7.93;;;;;;;;;;4966813;28;20823;-74
2023/03/17 07:14:47;;;;;;;13.57;5.97;;;;;;;;;;4967496;28;20425;-74
2023/03/17 07:17:13;;;;;;;19.03;7.07;;;;;;;;;;4965185;28;20230;-75
2023/03/17 07:19:41;;;;;;;18.47;7.73;;;;;;;;;;4966097;28;20077;-74
2023/03/17 07:22:10;;;;;;;19.10;6.70;;;;;;;;;;4963113;28;20133;-76
2023/03/17 07:24:38;;;;;;;19.80;7.73;;;;;;;;;;4969980;28;20460;-76
2023/03/17 07:27:05;;;;;;;23.03;7.73;;;;;;;;;;4971072;28;20039;-75
2023/03/17 07:29:32;;;;;;;21.23;7.37;;;;;;;;;;4961399;28;20041;-74
2023/03/17 07:31:58;;;;;;;23.87;7.87;;;;;;;;;;4957669;28;20661;-74
2023/03/17 07:34:23;;;;;;;21.13;7.37;;;;;;;;;;4963597;28;20038;-73
2023/03/17 07:36:49;;;;;;;15.20;6.90;;;;;;;;;;4964243;28;20594;-75
2023/03/17 07:39:15;;;;;;;21.53;7.10;;;;;;;;;;4964479;28;20038;-74
2023/03/17 07:41:41;;;;;;;12.43;6.00;;;;;;;;;;4965452;28;20029;-75
2023/03/17 07:44:08;;;;;;;15.60;6.90;;;;;;;;;;4958404;28;20027;-74
2023/03/17 07:46:34;;;;;;;18.93;7.27;;;;;;;;;;4964344;28;20031;-76
2023/03/17 07:49:00;;;;;;;22.17;8.17;;;;;;;;;;4967650;28;20532;-74
2023/03/17 07:51:26;;;;;;;25.60;9.27;;;;;;;;;;4962867;28;20105;-76
2023/03/17 07:53:54;;;;;;;19.17;7.27;;;;;;;;;;4963997;28;20054;-75
2023/03/17 07:56:20;;;;;;;15.23;6.87;;;;;;;;;;4962293;28;20172;-76
2023/03/17 07:58:46;;;;;;;19.50;6.70;;;;;;;;;;4961935;28;20035;-76
2023/03/17 08:01:15;;;;;;;16.60;6.63;;;;;;;;;;4963152;28;20629;-74
2023/03/17 08:03:42;;;;;;;16.47;6.43;;;;;;;;;;4964497;28;20746;-74
2023/03/17 08:06:08;;;;;;;15.87;6.33;;;;;;;;;;4965837;28;20034;-75
2023/03/17 08:08:35;;;;;;;14.67;6.50;;;;;;;;;;4964687;28;20034;-75
2023/03/17 08:11:05;;;;;;;23.40;7.07;;;;;;;;;;4963464;28;20030;-74
2023/03/17 08:13:31;;;;;;;19.80;6.40;;;;;;;;;;4969925;28;20038;-74
2023/03/17 08:15:57;;;;;;;18.13;6.17;;;;;;;;;;4966800;28;20031;-75
2023/03/17 08:18:23;;;;;;;25.50;7.10;;;;;;;;;;4968228;28;20120;-75
2023/03/17 08:20:52;;;;;;;10.77;4.93;;;;;;;;;;4966563;28;20037;-76
2023/03/17 08:23:20;;;;;;;17.70;4.53;;;;;;;;;;4967711;28;20185;-75
2023/03/17 08:25:47;;;;;;;23.30;5.67;;;;;;;;;;4949064;28;20043;-73
2023/03/17 08:28:19;;;;;;;10.23;5.70;;;;;;;;;;4964125;28;20038;-72
2023/03/17 08:30:48;;;;;;;10.63;5.10;;;;;;;;;;4966324;28;20041;-73
2023/03/17 08:33:15;;;;;;;15.60;5.83;;;;;;;;;;4968797;28;20050;-75
2023/03/17 08:35:53;;;;;;;12.53;5.27;;;;;;;;;;4968228;28;20054;-74
2023/03/17 08:38:19;;;;;;;11.20;5.33;;;;;;;;;;4962346;28;20030;-74
2023/03/17 08:40:45;;;;;;;12.23;5.60;;;;;;;;;;4952535;28;20375;-74
2023/03/17 08:43:11;;;;;;;14.67;5.80;;;;;;;;;;4964908;28;20121;-74
2023/03/17 08:45:38;;;;;;;16.10;6.80;;;;;;;;;;4964597;28;20041;-74
2023/03/17 08:48:04;;;;;;;12.97;5.90;;;;;;;;;;4965133;28;20037;-74
2023/03/17 08:50:30;;;;;;;14.67;5.93;;;;;;;;;;4966679;28;20023;-73
2023/03/17 08:52:56;;;;;;;16.43;5.60;;;;;;;;;;4960785;28;21427;-75
2023/03/17 08:55:23;;;;;;;14.37;5.47;;;;;;;;;;4936849;28;20066;-75
2023/03/17 08:57:51;;;;;;;9.87;5.70;;;;;;;;;;4966193;28;20077;-75
2023/03/17 09:00:19;;;;;;;16.40;5.83;;;;;;;;;;4968252;28;20060;-74
2023/03/17 09:02:45;;;;;;;15.00;5.73;;;;;;;;;;4966724;28;20066;-74
2023/03/17 09:05:21;;;;;;;18.50;6.00;;;;;;;;;;4964178;28;20026;-75
2023/03/17 09:07:48;;;;;;;14.60;6.53;;;;;;;;;;4967671;28;20041;-74
2023/03/17 09:10:15;;;;;;;14.53;5.93;;;;;;;;;;4963432;28;20038;-75
2023/03/17 09:12:44;;;;;;;13.90;5.90;;;;;;;;;;4968340;28;20059;-75
2023/03/17 09:15:13;;;;;;;13.33;5.27;;;;;;;;;;4971503;28;20050;-74
2023/03/17 09:17:40;;;;;;;12.13;6.07;;;;;;;;;;4971176;28;20490;-75
2023/03/17 09:20:15;;;;;;;15.23;6.60;;;;;;;;;;4967710;28;20026;-75
2023/03/17 09:22:41;;;;;;;11.17;5.03;;;;;;;;;;4968266;28;20122;-74
2023/03/17 09:25:07;;;;;;;13.23;5.47;;;;;;;;;;4968775;28;20023;-74
2023/03/17 09:27:33;;;;;;;9.57;5.80;;;;;;;;;;4971906;28;20124;-75
2023/03/17 09:29:59;;;;;;;15.90;5.53;;;;;;;;;;4978794;28;20034;-76
2023/03/17 09:32:26;;;;;;;9.03;5.90;;;;;;;;;;4976193;28;20482;-74
2023/03/17 09:34:52;;;;;;;11.80;5.03;;;;;;;;;;4975183;28;20027;-73
2023/03/17 09:37:18;;;;;;;17.83;6.13;;;;;;;;;;4969965;28;20081;-74
2023/03/17 09:39:43;;;;;;;7.77;4.67;;;;;;;;;;4969843;28;20122;-77
2023/03/17 09:42:39;;;;;;;13.73;6.00;;;;;;;;;;4965334;28;20434;-77
2023/03/17 09:45:12;;;;;;;10.57;4.73;;;;;;;;;;4968513;28;20042;-75
2023/03/17 09:47:57;;;;;;;14.10;5.60;;;;;;;;;;4963718;28;20054;-75
2023/03/17 09:50:27;;;;;;;12.27;4.80;;;;;;;;;;4962786;28;20070;-75
2023/03/17 09:52:56;;;;;;;10.60;4.30;;;;;;;;;;4965412;28;20027;-75
2023/03/17 09:55:33;;;;;;;8.45;4.43;;;;;;;;;;4962953;28;20077;-74
2023/03/17 09:58:02;;;;;;;9.25;4.63;;;;;;;;;;4967154;28;20035;-74
2023/03/17 10:00:29;;;;;;;5.55;4.00;;;;;;;;;;4969443;28;20031;-75
2023/03/17 10:02:58;;;;;;;10.77;4.90;;;;;;;;;;4962936;28;20027;-74
2023/03/17 10:05:34;;;;;;;6.72;3.17;;;;;;;;;;4970710;28;20141;-76
2023/03/17 10:08:15;;;;;;;7.50;4.38;;;;;;;;;;4969493;28;20125;-76
2023/03/17 10:10:48;;;;;;;6.53;3.92;;;;;;;;;;4970677;28;20043;-75
2023/03/17 10:13:56;;;;;;;17.35;7.97;;;;;;;;;;4975512;28;20031;-74
2023/03/17 10:16:45;;;;;;;6.90;4.00;;;;;;;;;;4987466;28;20045;-76
2023/03/17 10:19:36;;;;;;;8.80;4.15;;;;;;;;;;4979383;28;20053;-75
2023/03/17 10:22:18;;;;;;;11.10;4.67;;;;;;;;;;4980828;28;20113;-75
2023/03/17 10:24:51;;;;;;;6.10;3.63;;;;;;;;;;4979579;28;20039;-75
2023/03/17 10:27:20;;;;;;;11.77;4.25;;;;;;;;;;4964773;28;20044;-75
2023/03/17 10:29:46;;;;;;;5.82;4.55;;;;;;;;;;4962350;28;20027;-74
2023/03/17 10:32:13;;;;;;;8.57;4.70;;;;;;;;;;4965666;28;20039;-74
2023/03/17 10:34:41;;;;;;;13.27;4.43;;;;;;;;;;4964509;28;20473;-74
2023/03/17 10:37:14;;;;;;;8.80;4.72;;;;;;;;;;4963050;28;20143;-74
2023/03/17 10:39:55;;;;;;;16.45;5.82;;;;;;;;;;4965861;28;20409;-75
2023/03/17 10:42:28;;;;;;;8.95;4.32;;;;;;;;;;4965573;28;20038;-76
2023/03/17 10:45:16;;;;;;;9.20;4.50;;;;;;;;;;4969175;28;20042;-76
2023/03/17 10:47:49;;;;;;;10.07;4.53;;;;;;;;;;4964098;28;20023;-77
2023/03/17 10:50:19;;;;;;;12.60;5.72;;;;;;;;;;4966927;28;20137;-75
2023/03/17 10:52:46;;;;;;;8.27;4.28;;;;;;;;;;4968664;28;20031;-75
2023/03/17 10:55:21;;;;;;;8.05;4.90;;;;;;;;;;4970260;28;20478;-77
2023/03/17 10:58:02;;;;;;;9.25;4.80;;;;;;;;;;4952997;28;20034;-76
2023/03/17 11:00:34;;;;;;;7.95;4.35;;;;;;;;;;4970112;28;20035;-76
2023/03/17 11:03:09;;;;;;;12.10;4.75;;;;;;;;;;4959998;28;20118;-75
2023/03/17 11:05:37;;;;;;;12.57;5.03;;;;;;;;;;4967842;28;20066;-77
2023/03/17 11:08:29;;;;;;;8.52;5.28;;;;;;;;;;4968762;28;20479;-76
2023/03/17 11:10:55;;;;;;;11.98;5.15;;;;;;;;;;4970513;28;20023;-74
2023/03/17 11:13:28;;;;;;;9.55;4.70;;;;;;;;;;4969036;28;20114;-74
2023/03/17 11:16:27;;;;;;;9.18;4.72;;;;;;;;;;4971233;28;20630;-73
2023/03/17 11:19:06;;;;;;;12.57;5.00;;;;;;;;;;4968577;28;20051;-74
2023/03/17 11:21:53;;;;;;;7.20;4.40;;;;;;;;;;4970146;28;20063;-76
2023/03/17 11:24:28;;;;;;;8.57;5.25;;;;;;;;;;4956498;28;20117;-75
2023/03/17 11:27:04;;;;;;;8.07;4.40;;;;;;;;;;4966352;28;20105;-75
2023/03/17 11:29:50;;;;;;;10.43;5.05;;;;;;;;;;4966637;28;20030;-75
2023/03/17 11:32:28;;;;;;;12.50;4.43;;;;;;;;;;4960681;28;20031;-74
2023/03/17 11:35:08;;;;;;;8.25;4.35;;;;;;;;;;4960109;28;20054;-74
2023/03/17 11:37:55;;;;;;;7.95;4.47;;;;;;;;;;4959943;28;20035;-76
2023/03/17 11:40:48;;;;;;;9.38;4.25;;;;;;;;;;4961069;28;20037;-77
2023/03/17 11:43:32;;;;;;;;;;;;;;;;;;4943809;28;20044;-75
2023/03/17 11:46:12;;;;;;;13.48;4.40;;;;;;;;;;4948692;28;20533;-76
2023/03/17 11:49:08;;;;;;;9.50;4.30;;;;;;;;;;4959698;28;20472;-76
2023/03/17 11:52:04;;;;;;;13.43;5.20;;;;;;;;;;4958224;28;20431;-78
2023/03/17 11:54:55;;;;;;;10.70;4.32;;;;;;;;;;4962096;28;20038;-76
2023/03/17 11:57:47;;;;;;;7.30;3.83;;;;;;;;;;4962476;28;20035;-75
2023/03/17 12:00:26;;;;;;;7.93;4.88;;;;;;;;;;4957055;28;20038;-76
2023/03/17 12:02:59;;;;;;;9.85;4.97;;;;;;;;;;4963774;28;20110;-76
2023/03/17 12:05:26;;;;;;;8.52;4.40;;;;;;;;;;4965134;28;20113;-76
2023/03/17 12:08:00;;;;;;;12.02;5.28;;;;;;;;;;4962382;28;20027;-76
2023/03/17 12:10:40;;;;;;;6.82;4.57;;;;;;;;;;4963211;28;20023;-77
2023/03/17 12:13:22;;;;;;;13.63;5.55;;;;;;;;;;4963723;28;20109;-76
2023/03/17 12:15:50;;;;;;;;;;;;;;;;;;4962268;28;20027;-75
2023/03/17 12:18:25;;;;;;;11.43;4.72;;;;;;;;;;4962035;28;19925;-76
2023/03/17 12:21:16;;;;;;;6.57;4.05;;;;;;;;;;4967328;28;20656;-78
2023/03/17 12:24:13;;;;;;;15.82;5.30;;;;;;;;;;4966269;28;20049;-76
2023/03/17 12:27:09;;;;;;;8.50;4.50;;;;;;;;;;4975981;28;20035;-77
2023/03/17 12:29:56;;;;;;;7.32;4.15;;;;;;;;;;4970141;28;20051;-79
2023/03/17 12:32:40;;;;;;;8.45;4.95;;;;;;;;;;4967039;28;20122;-77
2023/03/17 12:35:38;;;;;;;14.63;5.35;;;;;;;;;;4970495;28;20059;-76
2023/03/17 12:38:15;;;;;;;15.18;5.50;;;;;;;;;;4975494;28;20065;-79
2023/03/17 12:41:04;;;;;;;8.38;4.60;;;;;;;;;;4973113;28;20055;-78
2023/03/17 12:44:08;;;;;;;8.15;4.50;;;;;;;;;;4968119;28;20042;-77
2023/03/17 12:46:49;;;;;;;8.25;4.85;;;;;;;;;;4965765;28;20039;-76
2023/03/17 12:49:46;;;;;;;12.30;5.40;;;;;;;;;;4958189;28;20042;-77
2023/03/17 12:52:39;;;;;;;12.20;5.90;;;;;;;;;;4962140;28;20106;-76
2023/03/17 12:55:15;;;;;;;9.95;4.63;;;;;;;;;;4963222;28;20027;-77
2023/03/17 12:57:46;;;;;;;10.55;5.18;;;;;;;;;;4951435;28;20038;-76
2023/03/17 13:00:19;;;;;;;8.43;4.82;;;;;;;;;;4968885;28;20022;-76
2023/03/17 13:02:50;;;;;;;19.58;5.70;;;;;;;;;;4951165;28;20149;-77
2023/03/17 13:05:27;;;;;;;13.55;5.50;;;;;;;;;;4970273;28;20034;-77
2023/03/17 13:07:56;;;;;;;14.00;5.28;;;;;;;;;;4966498;28;20059;-76
2023/03/17 13:10:36;;;;;;;19.10;5.25;;;;;;;;;;4966825;28;20363;-76
2023/03/17 13:13:22;;;;;;;10.93;4.80;;;;;;;;;;4966612;28;20035;-76
2023/03/17 13:15:57;;;;;;;19.95;6.45;;;;;;;;;;4968312;28;20035;-77
2023/03/17 13:18:43;;;;;;;12.40;6.07;;;;;;;;;;4964358;28;20019;-77
2023/03/17 13:21:13;;;;;;;15.35;6.50;;;;;;;;;;4961048;28;20181;-76
2023/03/17 13:23:46;;;;;;;9.82;5.60;;;;;;;;;;4963496;28;20169;-77
2023/03/17 13:26:21;;;;;;;13.18;5.65;;;;;;;;;;4961679;28;20108;-78
2023/03/17 13:28:49;;;;;;;12.82;5.15;;;;;;;;;;4963705;28;20203;-77
2023/03/17 13:31:30;;;;;;;9.68;5.50;;;;;;;;;;4961337;28;20042;-76
2023/03/17 13:34:11;;;;;;;12.50;5.60;;;;;;;;;;4962891;28;20035;-75
2023/03/17 13:36:53;;;;;;;11.98;5.60;;;;;;;;;;4962247;28;20122;-77
2023/03/17 13:39:49;;;;;;;11.82;6.03;;;;;;;;;;4970542;28;20033;-77
2023/03/17 13:42:34;;;;;;;10.68;5.20;;;;;;;;;;4966600;28;20740;-78
2023/03/17 13:45:06;;;;;;;10.70;5.32;;;;;;;;;;4965096;28;20150;-77
2023/03/17 13:47:35;;;;;;;11.40;5.38;;;;;;;;;;4967518;28;20034;-77
2023/03/17 13:50:15;;;;;;;16.13;5.80;;;;;;;;;;4966139;28;20081;-78
2023/03/17 13:53:03;;;;;;;9.52;5.95;;;;;;;;;;4967765;28;20030;-78
2023/03/17 13:55:36;;;;;;;12.48;5.63;;;;;;;;;;4969186;28;20041;-77
2023/03/17 13:58:11;;;;;;;18.17;6.07;;;;;;;;;;4966848;28;20030;-78
2023/03/17 14:00:42;;;;;;;10.13;5.82;;;;;;;;;;4963578;28;20129;-77
2023/03/17 14:03:22;;;;;;;13.75;6.05;;;;;;;;;;4967807;28;20038;-78
2023/03/17 14:05:53;;;;;;;12.95;5.85;;;;;;;;;;4968403;28;20035;-77
2023/03/17 14:08:32;;;;;;;13.07;7.13;;;;;;;;;;4968479;28;20043;-76
2023/03/17 14:11:05;;;;;;;16.00;5.55;;;;;;;;;;4969669;28;20034;-78
2023/03/17 14:14:08;;;;;;;11.43;5.60;;;;;;;;;;4966440;28;20446;-78
2023/03/17 14:16:43;;;;;;;15.77;6.63;;;;;;;;;;4964425;28;20380;-77
2023/03/17 14:19:22;;;;;;;10.60;5.90;;;;;;;;;;4969371;28;20050;-79
2023/03/17 14:21:48;;;;;;;14.68;6.10;;;;;;;;;;4967868;28;20065;-77
2023/03/17 14:24:30;;;;;;;12.05;5.78;;;;;;;;;;4966170;28;20450;-79
2023/03/17 14:27:17;;;;;;;14.48;6.40;;;;;;;;;;4966288;28;20034;-79
2023/03/17 14:29:43;;;;;;;8.60;5.78;;;;;;;;;;4978465;28;20054;-78
2023/03/17 14:32:15;;;;;;;18.05;6.32;;;;;;;;;;4968055;28;20027;-76
2023/03/17 14:34:58;;;;;;;9.38;5.75;;;;;;;;;;4967464;28;20031;-78
2023/03/17 14:37:27;;;;;;;11.25;5.60;;;;;;;;;;4948520;28;20055;-77
2023/03/17 14:39:56;;;;;;;11.85;5.82;;;;;;;;;;4968327;28;20030;-78
2023/03/17 14:42:30;;;;;;;15.15;5.70;;;;;;;;;;4968763;28;20108;-77
2023/03/17 14:45:07;;;;;;;18.98;6.38;;;;;;;;;;4969485;28;20054;-79
2023/03/17 14:47:42;;;;;;;13.48;6.13;;;;;;;;;;4963230;28;20667;-78
2023/03/17 14:50:30;;;;;;;12.55;5.82;;;;;;;;;;4952704;28;20161;-78
2023/03/17 14:52:59;;;;;;;15.45;6.30;;;;;;;;;;4967951;28;20031;-78